Terminal Aerodrome Forecast
Issued by NWS Pittsburgh, PA

Current Version | Previous Version | Graphics & Text | Print | Product List | Glossary On
Versions: 1 2 3 4 5 6 7 8 9 10 11 12 13 14 15 16 17 18 19 20 21 22 23 24 25 26 27 28
426
FTUS41 KPBZ 081504 AAA
TAFPIT
TAF AMD
KPIT 081504Z 0815/0918 15005KT P6SM BKN100
     FM081800 14005KT P6SM -RA OVC035
     FM082000 16005KT 3SM -RASN OVC015
     FM082200 20005KT P6SM VCSH OVC025
     FM090600 22004KT 5SM -SHSN OVC015
     FM091500 27005KT P6SM BKN020=

USA.gov is the U.S. government's official web portal to all federal, state and local government web resources and services.